PST: 09:08 MST: 10:08 CST: 11:08 EST: 12:08 LDN: 16:08 UTC: 16:08
User Agent: CCBot/2.0 (https://commoncrawl.org/faq/)
IP Address: 18.234.97.53
Hostname: ec2-18-234-97-53.compute-1.amazonaws.com

METAR:
KBFI 311600Z 00000KT 10SM CLR 06/04 A3042 RMK AO2 T00610039 $
KBFI 311553Z 00000KT 10SM SCT007 BKN020 06/04 A3041 RMK AO2 SLP298 T00560039 $
KBFI 311507Z 14003KT 10SM SCT007 BKN020 05/03 A3040 RMK AO2 T00500028 $
KBFI 311500Z 17003KT 10SM BKN007 04/02 A3040 RMK AO2 T00390022 $
KBFI 311453Z 16003KT 10SM SCT007 BKN020 05/03 A3039 RMK AO2 SLP291 T00500028 51009 $
KBFI 311445Z 00000KT 10SM SCT007 BKN020 05/03 A3039 RMK AO2 T00500028 $
KBFI 311435Z 00000KT 10SM SCT007 05/03 A3039 RMK AO2 T00500028 $
KBFI 311353Z 00000KT 10SM CLR 06/03 A3039 RMK AO2 SLP290 T00610033 $
KBFI 311253Z 00000KT 10SM CLR 06/04 A3038 RMK AO2 SLP286 T00610039 $

TAF:
KBFI 311120Z 3112/0112 00000KT P6SM SCT200
FM 311800 34004KT P6SM SCT150

KBFI 310520Z 3106/0106 VRB04KT P6SM BKN050
FM 311200 00000KT P6SM SCT008 SCT040
FM 311800 34004KT P6SM SCT150

KBFI 310257Z 3103/3124 VRB04KT P6SM SCT050
FM 311100 VRB03KT P6SM BKN015
FM 311700 02003KT P6SM BKN250

KBFI 302321Z 3100/3124 18007KT P6SM SCT050
FM 310500 15003KT P6SM SCT050 BKN200
FM 311100 VRB03KT P6SM BKN015
FM 311700 02003KT P6SM BKN250

KBFI 302053Z 3021/3118 18005KT P6SM SCT040
FM 310000 22007KT P6SM BKN050
FM 310500 15003KT P6SM SCT050 BKN200
FM 311100 VRB03KT P6SM BKN015
FM 311700 02003KT P6SM BKN250

KBFI 301722Z 3018/3118 18012KT P6SM FEW015 BKN020
FM 302100 22013G20KT P6SM BKN050
FM 310200 28005KT P6SM BKN050
FM 310500 15003KT P6SM SCT050 BKN200
FM 311100 VRB03KT P6SM BKN015